Terminal Aerodrome Forecast
Issued by NWS

Home | Current Version | Previous Version | Text Only | Print | Product List | Glossary On
Versions: 1 2 3 4 5 6 7 8 9 10 11 12 13 14 15 16 17
000
FTUS46 KSEW 271700
TAFOLM
TAF
KOLM 271733Z 2718/2818 22004KT P6SM SKC
     FM280000 22004KT P6SM SCT060 SCT250
     FM280300 25006KT P6SM SCT060 SCT250
     FM280600 22008KT P6SM SCT030
     FM281200 20006KT P6SM BKN015 OVC025=

USA.gov is the U.S. government's official web portal to all federal, state and local government web resources and services.